sensor_id;sensor_type;location;lat;lon;timestamp;P1;durP1;ratioP1;P2;durP2;ratioP2
74448;SDS011;62878;51.026;4.472;2022-11-15T00:01:31;8.07;;;4.07;;
74448;SDS011;62878;51.026;4.472;2022-11-15T00:03:56;8.60;;;4.40;;
74448;SDS011;62878;51.026;4.472;2022-11-15T00:06:22;8.63;;;4.32;;
74448;SDS011;62878;51.026;4.472;2022-11-15T00:08:47;6.28;;;3.90;;
74448;SDS011;62878;51.026;4.472;2022-11-15T00:11:12;8.75;;;4.20;;
74448;SDS011;62878;51.026;4.472;2022-11-15T00:13:38;7.43;;;3.45;;
74448;SDS011;62878;51.026;4.472;2022-11-15T00:16:04;6.43;;;3.75;;
74448;SDS011;62878;51.026;4.472;2022-11-15T00:18:29;5.75;;;3.60;;
74448;SDS011;62878;51.026;4.472;2022-11-15T00:20:55;6.38;;;3.88;;
74448;SDS011;62878;51.026;4.472;2022-11-15T00:23:21;4.63;;;3.03;;
74448;SDS011;62878;51.026;4.472;2022-11-15T00:25:54;6.13;;;3.45;;
74448;SDS011;62878;51.026;4.472;2022-11-15T00:28:20;6.18;;;3.10;;
74448;SDS011;62878;51.026;4.472;2022-11-15T00:30:47;4.97;;;3.33;;
74448;SDS011;62878;51.026;4.472;2022-11-15T00:33:12;5.40;;;3.67;;
74448;SDS011;62878;51.026;4.472;2022-11-15T00:35:37;7.15;;;3.15;;
74448;SDS011;62878;51.026;4.472;2022-11-15T00:38:03;6.72;;;4.00;;
74448;SDS011;62878;51.026;4.472;2022-11-15T00:40:28;5.72;;;3.30;;
74448;SDS011;62878;51.026;4.472;2022-11-15T00:42:54;6.88;;;3.65;;
74448;SDS011;62878;51.026;4.472;2022-11-15T00:45:19;8.20;;;3.30;;
74448;SDS011;62878;51.026;4.472;2022-11-15T00:47:45;6.07;;;3.03;;
74448;SDS011;62878;51.026;4.472;2022-11-15T00:50:11;6.03;;;2.90;;
74448;SDS011;62878;51.026;4.472;2022-11-15T00:52:36;6.70;;;2.75;;
74448;SDS011;62878;51.026;4.472;2022-11-15T00:55:02;4.72;;;3.08;;
74448;SDS011;62878;51.026;4.472;2022-11-15T00:57:27;5.03;;;2.53;;
74448;SDS011;62878;51.026;4.472;2022-11-15T00:59:53;7.20;;;2.80;;
74448;SDS011;62878;51.026;4.472;2022-11-15T01:02:18;8.50;;;3.05;;
74448;SDS011;62878;51.026;4.472;2022-11-15T01:04:43;6.45;;;2.95;;
74448;SDS011;62878;51.026;4.472;2022-11-15T01:07:09;4.57;;;2.30;;
74448;SDS011;62878;51.026;4.472;2022-11-15T01:09:34;4.13;;;2.55;;
74448;SDS011;62878;51.026;4.472;2022-11-15T01:11:59;5.10;;;2.63;;
74448;SDS011;62878;51.026;4.472;2022-11-15T01:14:25;4.93;;;2.53;;
74448;SDS011;62878;51.026;4.472;2022-11-15T01:16:50;4.22;;;2.58;;
74448;SDS011;62878;51.026;4.472;2022-11-15T01:19:15;6.47;;;2.67;;
74448;SDS011;62878;51.026;4.472;2022-11-15T01:21:41;5.07;;;3.13;;
74448;SDS011;62878;51.026;4.472;2022-11-15T01:24:07;5.25;;;3.05;;
74448;SDS011;62878;51.026;4.472;2022-11-15T01:26:35;6.47;;;2.90;;
74448;SDS011;62878;51.026;4.472;2022-11-15T01:29:01;4.82;;;2.50;;
74448;SDS011;62878;51.026;4.472;2022-11-15T01:31:26;5.95;;;2.60;;
74448;SDS011;62878;51.026;4.472;2022-11-15T01:33:51;3.92;;;1.92;;
74448;SDS011;62878;51.026;4.472;2022-11-15T01:36:18;6.40;;;2.80;;
74448;SDS011;62878;51.026;4.472;2022-11-15T01:38:46;3.75;;;2.35;;
74448;SDS011;62878;51.026;4.472;2022-11-15T01:41:19;4.78;;;2.53;;
74448;SDS011;62878;51.026;4.472;2022-11-15T01:43:51;4.68;;;3.10;;
74448;SDS011;62878;51.026;4.472;2022-11-15T01:48:46;5.07;;;3.00;;
74448;SDS011;62878;51.026;4.472;2022-11-15T01:51:11;4.85;;;3.05;;
74448;SDS011;62878;51.026;4.472;2022-11-15T01:53:41;3.70;;;2.28;;
74448;SDS011;62878;51.026;4.472;2022-11-15T01:56:10;6.28;;;3.00;;
74448;SDS011;62878;51.026;4.472;2022-11-15T01:58:38;3.38;;;2.28;;
74448;SDS011;62878;51.026;4.472;2022-11-15T02:01:05;7.00;;;2.95;;
74448;SDS011;62878;51.026;4.472;2022-11-15T02:03:34;5.05;;;2.70;;
74448;SDS011;62878;51.026;4.472;2022-11-15T02:06:09;7.45;;;3.15;;
74448;SDS011;62878;51.026;4.472;2022-11-15T02:08:35;4.07;;;2.25;;
74448;SDS011;62878;51.026;4.472;2022-11-15T02:11:00;4.95;;;2.33;;
74448;SDS011;62878;51.026;4.472;2022-11-15T02:13:25;8.20;;;3.25;;
74448;SDS011;62878;51.026;4.472;2022-11-15T02:18:33;5.57;;;3.20;;
74448;SDS011;62878;51.026;4.472;2022-11-15T02:21:11;7.30;;;2.60;;
74448;SDS011;62878;51.026;4.472;2022-11-15T02:32:30;4.83;;;2.57;;
74448;SDS011;62878;51.026;4.472;2022-11-15T02:40:34;3.08;;;2.10;;
74448;SDS011;62878;51.026;4.472;2022-11-15T02:43:09;2.70;;;1.67;;
74448;SDS011;62878;51.026;4.472;2022-11-15T02:46:01;3.40;;;1.92;;
74448;SDS011;62878;51.026;4.472;2022-11-15T02:48:31;3.38;;;1.70;;
74448;SDS011;62878;51.026;4.472;2022-11-15T02:50:58;6.03;;;2.25;;
74448;SDS011;62878;51.026;4.472;2022-11-15T02:53:25;2.95;;;1.23;;
74448;SDS011;62878;51.026;4.472;2022-11-15T02:55:51;4.63;;;2.53;;
74448;SDS011;62878;51.026;4.472;2022-11-15T03:03:41;2.33;;;1.50;;
74448;SDS011;62878;51.026;4.472;2022-11-15T03:09:05;4.32;;;1.58;;
74448;SDS011;62878;51.026;4.472;2022-11-15T03:11:40;3.63;;;1.70;;
74448;SDS011;62878;51.026;4.472;2022-11-15T03:19:45;3.47;;;1.40;;
74448;SDS011;62878;51.026;4.472;2022-11-15T03:22:15;2.35;;;1.27;;
74448;SDS011;62878;51.026;4.472;2022-11-15T03:24:43;2.90;;;1.67;;
74448;SDS011;62878;51.026;4.472;2022-11-15T03:27:11;4.97;;;1.73;;
74448;SDS011;62878;51.026;4.472;2022-11-15T03:29:42;4.40;;;1.55;;
74448;SDS011;62878;51.026;4.472;2022-11-15T03:32:12;3.35;;;1.38;;
74448;SDS011;62878;51.026;4.472;2022-11-15T03:40:19;3.33;;;1.58;;
74448;SDS011;62878;51.026;4.472;2022-11-15T03:42:54;2.72;;;1.50;;
74448;SDS011;62878;51.026;4.472;2022-11-15T03:45:23;4.22;;;1.83;;
74448;SDS011;62878;51.026;4.472;2022-11-15T03:48:01;2.55;;;1.48;;
74448;SDS011;62878;51.026;4.472;2022-11-15T03:50:31;2.80;;;1.50;;
74448;SDS011;62878;51.026;4.472;2022-11-15T03:52:57;2.35;;;1.55;;
74448;SDS011;62878;51.026;4.472;2022-11-15T03:55:23;3.28;;;1.55;;
74448;SDS011;62878;51.026;4.472;2022-11-15T03:57:50;4.88;;;1.55;;
74448;SDS011;62878;51.026;4.472;2022-11-15T04:00:17;2.67;;;1.50;;
74448;SDS011;62878;51.026;4.472;2022-11-15T04:02:43;5.32;;;1.77;;
74448;SDS011;62878;51.026;4.472;2022-11-15T04:05:08;2.38;;;0.90;;
74448;SDS011;62878;51.026;4.472;2022-11-15T04:07:34;1.30;;;0.93;;
74448;SDS011;62878;51.026;4.472;2022-11-15T04:09:59;3.70;;;1.23;;
74448;SDS011;62878;51.026;4.472;2022-11-15T04:12:28;2.95;;;1.27;;
74448;SDS011;62878;51.026;4.472;2022-11-15T04:14:58;2.80;;;0.90;;
74448;SDS011;62878;51.026;4.472;2022-11-15T04:17:44;2.50;;;1.17;;
74448;SDS011;62878;51.026;4.472;2022-11-15T04:23:14;3.70;;;1.55;;
74448;SDS011;62878;51.026;4.472;2022-11-15T04:26:22;3.05;;;1.40;;
74448;SDS011;62878;51.026;4.472;2022-11-15T04:28:46;3.83;;;1.00;;
74448;SDS011;62878;51.026;4.472;2022-11-15T04:31:30;1.40;;;1.05;;
74448;SDS011;62878;51.026;4.472;2022-11-15T04:33:56;4.00;;;0.90;;
74448;SDS011;62878;51.026;4.472;2022-11-15T04:36:21;2.00;;;0.73;;
74448;SDS011;62878;51.026;4.472;2022-11-15T04:39:05;2.15;;;0.75;;
74448;SDS011;62878;51.026;4.472;2022-11-15T04:41:31;1.92;;;0.90;;
74448;SDS011;62878;51.026;4.472;2022-11-15T04:43:56;2.97;;;0.82;;
74448;SDS011;62878;51.026;4.472;2022-11-15T04:46:22;2.50;;;0.82;;
74448;SDS011;62878;51.026;4.472;2022-11-15T04:48:48;1.73;;;1.00;;
74448;SDS011;62878;51.026;4.472;2022-11-15T04:51:14;2.85;;;1.55;;
74448;SDS011;62878;51.026;4.472;2022-11-15T04:53:39;3.42;;;1.30;;
74448;SDS011;62878;51.026;4.472;2022-11-15T04:56:04;3.38;;;0.98;;
74448;SDS011;62878;51.026;4.472;2022-11-15T04:58:31;1.90;;;0.60;;
74448;SDS011;62878;51.026;4.472;2022-11-15T05:00:56;2.60;;;1.02;;
74448;SDS011;62878;51.026;4.472;2022-11-15T05:03:22;1.13;;;0.60;;
74448;SDS011;62878;51.026;4.472;2022-11-15T05:06:05;2.42;;;1.00;;
74448;SDS011;62878;51.026;4.472;2022-11-15T05:08:31;1.70;;;0.90;;
74448;SDS011;62878;51.026;4.472;2022-11-15T05:10:57;1.58;;;0.80;;
74448;SDS011;62878;51.026;4.472;2022-11-15T05:13:22;2.85;;;0.73;;
74448;SDS011;62878;51.026;4.472;2022-11-15T05:15:47;1.45;;;0.68;;
74448;SDS011;62878;51.026;4.472;2022-11-15T05:18:13;1.80;;;0.82;;
74448;SDS011;62878;51.026;4.472;2022-11-15T05:20:38;1.45;;;0.60;;
74448;SDS011;62878;51.026;4.472;2022-11-15T05:23:03;0.80;;;0.55;;
74448;SDS011;62878;51.026;4.472;2022-11-15T05:25:30;1.33;;;0.85;;
74448;SDS011;62878;51.026;4.472;2022-11-15T05:27:55;2.80;;;0.82;;
74448;SDS011;62878;51.026;4.472;2022-11-15T05:30:21;1.23;;;0.50;;
74448;SDS011;62878;51.026;4.472;2022-11-15T05:32:46;0.82;;;0.50;;
74448;SDS011;62878;51.026;4.472;2022-11-15T05:35:13;0.85;;;0.52;;
74448;SDS011;62878;51.026;4.472;2022-11-15T05:37:43;1.83;;;0.60;;
74448;SDS011;62878;51.026;4.472;2022-11-15T05:40:09;0.82;;;0.50;;
74448;SDS011;62878;51.026;4.472;2022-11-15T05:42:34;2.03;;;0.65;;
74448;SDS011;62878;51.026;4.472;2022-11-15T05:45:03;1.58;;;0.70;;
74448;SDS011;62878;51.026;4.472;2022-11-15T05:47:31;0.95;;;0.50;;
74448;SDS011;62878;51.026;4.472;2022-11-15T05:49:58;1.83;;;0.50;;
74448;SDS011;62878;51.026;4.472;2022-11-15T05:52:25;0.75;;;0.55;;
74448;SDS011;62878;51.026;4.472;2022-11-15T05:54:55;2.38;;;0.60;;
74448;SDS011;62878;51.026;4.472;2022-11-15T05:57:22;2.72;;;0.60;;
74448;SDS011;62878;51.026;4.472;2022-11-15T05:59:49;1.52;;;0.60;;
74448;SDS011;62878;51.026;4.472;2022-11-15T06:02:14;1.55;;;0.60;;
74448;SDS011;62878;51.026;4.472;2022-11-15T06:04:40;1.25;;;0.50;;
74448;SDS011;62878;51.026;4.472;2022-11-15T06:07:05;0.98;;;0.40;;
74448;SDS011;62878;51.026;4.472;2022-11-15T06:09:30;2.40;;;0.50;;
74448;SDS011;62878;51.026;4.472;2022-11-15T06:11:55;0.82;;;0.47;;
74448;SDS011;62878;51.026;4.472;2022-11-15T06:14:21;1.33;;;0.50;;
74448;SDS011;62878;51.026;4.472;2022-11-15T06:16:46;1.30;;;0.45;;
74448;SDS011;62878;51.026;4.472;2022-11-15T06:19:13;3.40;;;0.50;;
74448;SDS011;62878;51.026;4.472;2022-11-15T06:21:38;2.15;;;0.57;;
74448;SDS011;62878;51.026;4.472;2022-11-15T06:24:04;3.30;;;0.70;;
74448;SDS011;62878;51.026;4.472;2022-11-15T06:26:29;0.95;;;0.50;;
74448;SDS011;62878;51.026;4.472;2022-11-15T06:28:55;2.33;;;0.40;;
74448;SDS011;62878;51.026;4.472;2022-11-15T06:31:20;1.15;;;0.60;;
74448;SDS011;62878;51.026;4.472;2022-11-15T06:33:47;1.48;;;0.50;;
74448;SDS011;62878;51.026;4.472;2022-11-15T06:36:14;1.13;;;0.45;;
74448;SDS011;62878;51.026;4.472;2022-11-15T06:38:41;1.60;;;0.40;;
74448;SDS011;62878;51.026;4.472;2022-11-15T06:41:08;3.13;;;0.50;;
74448;SDS011;62878;51.026;4.472;2022-11-15T06:43:34;0.50;;;0.40;;
74448;SDS011;62878;51.026;4.472;2022-11-15T06:46:01;0.60;;;0.40;;
74448;SDS011;62878;51.026;4.472;2022-11-15T06:48:27;5.43;;;0.35;;
74448;SDS011;62878;51.026;4.472;2022-11-15T06:50:54;2.03;;;0.63;;
74448;SDS011;62878;51.026;4.472;2022-11-15T06:53:20;1.48;;;0.50;;
74448;SDS011;62878;51.026;4.472;2022-11-15T06:55:46;0.73;;;0.47;;
74448;SDS011;62878;51.026;4.472;2022-11-15T06:58:11;1.98;;;0.50;;
74448;SDS011;62878;51.026;4.472;2022-11-15T07:00:37;1.10;;;0.40;;
74448;SDS011;62878;51.026;4.472;2022-11-15T07:03:03;0.68;;;0.60;;
74448;SDS011;62878;51.026;4.472;2022-11-15T07:05:28;1.08;;;0.52;;
74448;SDS011;62878;51.026;4.472;2022-11-15T07:07:54;2.90;;;0.50;;
74448;SDS011;62878;51.026;4.472;2022-11-15T07:10:20;2.28;;;0.50;;
74448;SDS011;62878;51.026;4.472;2022-11-15T07:12:49;1.65;;;0.50;;
74448;SDS011;62878;51.026;4.472;2022-11-15T07:15:16;1.30;;;0.45;;
74448;SDS011;62878;51.026;4.472;2022-11-15T07:17:42;0.50;;;0.32;;
74448;SDS011;62878;51.026;4.472;2022-11-15T07:20:07;2.25;;;0.55;;
74448;SDS011;62878;51.026;4.472;2022-11-15T07:22:33;2.60;;;0.40;;
74448;SDS011;62878;51.026;4.472;2022-11-15T07:24:58;0.98;;;0.45;;
74448;SDS011;62878;51.026;4.472;2022-11-15T07:27:24;1.95;;;0.50;;
74448;SDS011;62878;51.026;4.472;2022-11-15T07:29:49;0.50;;;0.47;;
74448;SDS011;62878;51.026;4.472;2022-11-15T07:32:14;0.57;;;0.43;;
74448;SDS011;62878;51.026;4.472;2022-11-15T07:34:39;2.75;;;0.35;;
74448;SDS011;62878;51.026;4.472;2022-11-15T07:37:05;1.40;;;0.40;;
74448;SDS011;62878;51.026;4.472;2022-11-15T07:39:30;0.47;;;0.30;;
74448;SDS011;62878;51.026;4.472;2022-11-15T07:41:55;2.08;;;0.55;;
74448;SDS011;62878;51.026;4.472;2022-11-15T07:44:41;0.73;;;0.50;;
74448;SDS011;62878;51.026;4.472;2022-11-15T07:47:06;3.03;;;0.70;;
74448;SDS011;62878;51.026;4.472;2022-11-15T07:49:31;1.27;;;0.50;;
74448;SDS011;62878;51.026;4.472;2022-11-15T07:51:57;0.68;;;0.40;;
74448;SDS011;62878;51.026;4.472;2022-11-15T07:54:22;1.15;;;0.55;;
74448;SDS011;62878;51.026;4.472;2022-11-15T07:56:47;0.60;;;0.43;;
74448;SDS011;62878;51.026;4.472;2022-11-15T07:59:14;1.02;;;0.50;;
74448;SDS011;62878;51.026;4.472;2022-11-15T08:01:39;2.25;;;0.47;;
74448;SDS011;62878;51.026;4.472;2022-11-15T08:04:05;0.80;;;0.40;;
74448;SDS011;62878;51.026;4.472;2022-11-15T08:06:30;1.30;;;0.40;;
74448;SDS011;62878;51.026;4.472;2022-11-15T08:08:55;0.52;;;0.32;;
74448;SDS011;62878;51.026;4.472;2022-11-15T08:11:21;2.50;;;0.40;;
74448;SDS011;62878;51.026;4.472;2022-11-15T08:13:46;0.63;;;0.40;;
74448;SDS011;62878;51.026;4.472;2022-11-15T08:16:11;0.80;;;0.40;;
74448;SDS011;62878;51.026;4.472;2022-11-15T08:18:37;1.98;;;0.38;;
74448;SDS011;62878;51.026;4.472;2022-11-15T08:21:03;1.33;;;0.30;;
74448;SDS011;62878;51.026;4.472;2022-11-15T08:23:28;0.77;;;0.30;;
74448;SDS011;62878;51.026;4.472;2022-11-15T08:26:01;0.57;;;0.40;;
74448;SDS011;62878;51.026;4.472;2022-11-15T08:28:28;0.57;;;0.30;;
74448;SDS011;62878;51.026;4.472;2022-11-15T08:30:54;0.73;;;0.32;;
74448;SDS011;62878;51.026;4.472;2022-11-15T08:33:21;2.15;;;0.30;;
74448;SDS011;62878;51.026;4.472;2022-11-15T08:35:47;1.13;;;0.35;;
74448;SDS011;62878;51.026;4.472;2022-11-15T08:38:13;0.55;;;0.38;;
74448;SDS011;62878;51.026;4.472;2022-11-15T08:40:39;0.65;;;0.30;;
74448;SDS011;62878;51.026;4.472;2022-11-15T08:43:04;1.25;;;0.50;;
74448;SDS011;62878;51.026;4.472;2022-11-15T08:45:30;1.70;;;0.30;;
74448;SDS011;62878;51.026;4.472;2022-11-15T08:47:56;0.50;;;0.20;;
74448;SDS011;62878;51.026;4.472;2022-11-15T08:50:23;4.30;;;0.60;;
74448;SDS011;62878;51.026;4.472;2022-11-15T08:52:49;0.73;;;0.30;;
74448;SDS011;62878;51.026;4.472;2022-11-15T08:55:14;0.90;;;0.28;;
74448;SDS011;62878;51.026;4.472;2022-11-15T08:57:39;2.60;;;0.30;;
74448;SDS011;62878;51.026;4.472;2022-11-15T09:00:05;0.65;;;0.30;;
74448;SDS011;62878;51.026;4.472;2022-11-15T09:02:32;1.38;;;0.40;;
74448;SDS011;62878;51.026;4.472;2022-11-15T09:04:57;0.65;;;0.22;;
74448;SDS011;62878;51.026;4.472;2022-11-15T09:07:23;0.75;;;0.30;;
74448;SDS011;62878;51.026;4.472;2022-11-15T09:09:49;3.38;;;0.30;;
74448;SDS011;62878;51.026;4.472;2022-11-15T09:12:14;3.03;;;0.30;;
74448;SDS011;62878;51.026;4.472;2022-11-15T09:14:39;0.93;;;0.30;;
74448;SDS011;62878;51.026;4.472;2022-11-15T09:17:07;1.77;;;0.30;;
74448;SDS011;62878;51.026;4.472;2022-11-15T09:19:33;0.75;;;0.20;;
74448;SDS011;62878;51.026;4.472;2022-11-15T09:21:59;0.73;;;0.30;;
74448;SDS011;62878;51.026;4.472;2022-11-15T09:24:24;0.20;;;0.20;;
74448;SDS011;62878;51.026;4.472;2022-11-15T09:26:50;0.55;;;0.20;;
74448;SDS011;62878;51.026;4.472;2022-11-15T09:29:16;0.30;;;0.20;;
74448;SDS011;62878;51.026;4.472;2022-11-15T09:31:42;0.93;;;0.20;;
74448;SDS011;62878;51.026;4.472;2022-11-15T09:34:07;1.52;;;0.30;;
74448;SDS011;62878;51.026;4.472;2022-11-15T09:36:33;0.28;;;0.20;;
74448;SDS011;62878;51.026;4.472;2022-11-15T09:38:58;1.15;;;0.30;;
74448;SDS011;62878;51.026;4.472;2022-11-15T09:41:38;1.55;;;0.30;;
74448;SDS011;62878;51.026;4.472;2022-11-15T09:50:00;2.38;;;0.20;;
74448;SDS011;62878;51.026;4.472;2022-11-15T09:52:33;0.57;;;0.20;;
74448;SDS011;62878;51.026;4.472;2022-11-15T09:55:01;1.33;;;0.22;;
74448;SDS011;62878;51.026;4.472;2022-11-15T10:05:39;2.47;;;0.55;;
74448;SDS011;62878;51.026;4.472;2022-11-15T10:08:17;1.65;;;0.30;;
74448;SDS011;62878;51.026;4.472;2022-11-15T10:11:09;3.20;;;0.20;;
74448;SDS011;62878;51.026;4.472;2022-11-15T10:13:38;1.75;;;0.20;;
74448;SDS011;62878;51.026;4.472;2022-11-15T10:16:12;1.85;;;0.32;;
74448;SDS011;62878;51.026;4.472;2022-11-15T10:21:52;4.25;;;0.20;;
74448;SDS011;62878;51.026;4.472;2022-11-15T10:24:34;2.53;;;0.22;;
74448;SDS011;62878;51.026;4.472;2022-11-15T10:27:03;1.67;;;0.30;;
74448;SDS011;62878;51.026;4.472;2022-11-15T10:29:36;4.18;;;0.40;;
74448;SDS011;62878;51.026;4.472;2022-11-15T10:32:09;3.10;;;0.20;;
74448;SDS011;62878;51.026;4.472;2022-11-15T10:34:36;1.13;;;0.22;;
74448;SDS011;62878;51.026;4.472;2022-11-15T10:37:01;0.40;;;0.10;;
74448;SDS011;62878;51.026;4.472;2022-11-15T10:39:27;0.47;;;0.20;;
74448;SDS011;62878;51.026;4.472;2022-11-15T10:41:53;0.80;;;0.38;;
74448;SDS011;62878;51.026;4.472;2022-11-15T10:44:20;0.95;;;0.10;;
74448;SDS011;62878;51.026;4.472;2022-11-15T10:49:21;3.53;;;0.20;;
74448;SDS011;62878;51.026;4.472;2022-11-15T10:57:12;2.50;;;0.38;;
74448;SDS011;62878;51.026;4.472;2022-11-15T10:59:40;5.15;;;0.57;;
74448;SDS011;62878;51.026;4.472;2022-11-15T11:02:29;3.45;;;0.20;;
74448;SDS011;62878;51.026;4.472;2022-11-15T11:10:52;0.73;;;0.20;;
74448;SDS011;62878;51.026;4.472;2022-11-15T11:13:24;1.75;;;0.30;;
74448;SDS011;62878;51.026;4.472;2022-11-15T11:15:53;0.55;;;0.30;;
74448;SDS011;62878;51.026;4.472;2022-11-15T11:18:28;3.85;;;0.30;;
74448;SDS011;62878;51.026;4.472;2022-11-15T11:22:02;1.13;;;0.30;;
74448;SDS011;62878;51.026;4.472;2022-11-15T11:24:08;0.50;;;0.20;;
74448;SDS011;62878;51.026;4.472;2022-11-15T11:26:43;0.60;;;0.20;;
74448;SDS011;62878;51.026;4.472;2022-11-15T11:29:26;1.52;;;0.30;;
74448;SDS011;62878;51.026;4.472;2022-11-15T11:32:08;0.45;;;0.10;;
74448;SDS011;62878;51.026;4.472;2022-11-15T11:34:58;0.40;;;0.20;;
74448;SDS011;62878;51.026;4.472;2022-11-15T11:40:15;0.68;;;0.20;;
74448;SDS011;62878;51.026;4.472;2022-11-15T11:42:58;1.95;;;0.30;;
74448;SDS011;62878;51.026;4.472;2022-11-15T11:48:51;0.65;;;0.20;;
74448;SDS011;62878;51.026;4.472;2022-11-15T11:51:34;0.60;;;0.10;;
74448;SDS011;62878;51.026;4.472;2022-11-15T11:56:41;0.90;;;0.20;;
74448;SDS011;62878;51.026;4.472;2022-11-15T12:01:49;1.75;;;0.10;;
74448;SDS011;62878;51.026;4.472;2022-11-15T12:04:16;1.90;;;0.20;;
74448;SDS011;62878;51.026;4.472;2022-11-15T12:12:23;0.65;;;0.10;;
74448;SDS011;62878;51.026;4.472;2022-11-15T12:14:55;0.57;;;0.10;;
74448;SDS011;62878;51.026;4.472;2022-11-15T12:17:23;0.85;;;0.17;;
74448;SDS011;62878;51.026;4.472;2022-11-15T12:19:51;1.15;;;0.10;;
74448;SDS011;62878;51.026;4.472;2022-11-15T12:25:01;1.50;;;0.30;;
74448;SDS011;62878;51.026;4.472;2022-11-15T12:27:38;0.10;;;0.00;;
74448;SDS011;62878;51.026;4.472;2022-11-15T12:30:15;1.65;;;0.00;;
74448;SDS011;62878;51.026;4.472;2022-11-15T12:32:52;0.38;;;0.13;;
74448;SDS011;62878;51.026;4.472;2022-11-15T12:35:26;2.20;;;0.10;;
74448;SDS011;62878;51.026;4.472;2022-11-15T12:38:00;0.35;;;0.20;;
74448;SDS011;62878;51.026;4.472;2022-11-15T12:45:49;1.80;;;0.10;;
74448;SDS011;62878;51.026;4.472;2022-11-15T13:04:08;0.28;;;0.10;;
74448;SDS011;62878;51.026;4.472;2022-11-15T13:06:41;1.00;;;0.17;;
74448;SDS011;62878;51.026;4.472;2022-11-15T13:12:10;0.77;;;0.22;;
74448;SDS011;62878;51.026;4.472;2022-11-15T13:15:30;2.20;;;0.20;;
74448;SDS011;62878;51.026;4.472;2022-11-15T13:17:56;0.43;;;0.10;;
74448;SDS011;62878;51.026;4.472;2022-11-15T13:28:36;1.77;;;0.20;;
74448;SDS011;62878;51.026;4.472;2022-11-15T13:33:41;1.65;;;0.10;;
74448;SDS011;62878;51.026;4.472;2022-11-15T13:36:16;0.22;;;0.10;;
74448;SDS011;62878;51.026;4.472;2022-11-15T13:38:44;0.65;;;0.10;;
74448;SDS011;62878;51.026;4.472;2022-11-15T13:41:20;2.15;;;0.20;;
74448;SDS011;62878;51.026;4.472;2022-11-15T13:43:51;1.58;;;0.17;;
74448;SDS011;62878;51.026;4.472;2022-11-15T13:48:43;0.68;;;0.10;;
74448;SDS011;62878;51.026;4.472;2022-11-15T13:51:15;1.75;;;0.40;;
74448;SDS011;62878;51.026;4.472;2022-11-15T13:53:43;0.50;;;0.10;;
74448;SDS011;62878;51.026;4.472;2022-11-15T13:56:12;0.38;;;0.13;;
74448;SDS011;62878;51.026;4.472;2022-11-15T13:58:40;1.10;;;0.10;;
74448;SDS011;62878;51.026;4.472;2022-11-15T14:01:06;0.40;;;0.10;;
74448;SDS011;62878;51.026;4.472;2022-11-15T14:03:33;1.98;;;0.20;;
74448;SDS011;62878;51.026;4.472;2022-11-15T14:06:10;1.08;;;0.20;;
74448;SDS011;62878;51.026;4.472;2022-11-15T14:08:41;0.73;;;0.20;;
74448;SDS011;62878;51.026;4.472;2022-11-15T14:11:21;0.73;;;0.20;;
74448;SDS011;62878;51.026;4.472;2022-11-15T14:14:01;0.10;;;0.10;;
74448;SDS011;62878;51.026;4.472;2022-11-15T14:16:37;1.85;;;0.10;;
74448;SDS011;62878;51.026;4.472;2022-11-15T14:19:32;0.65;;;0.10;;
74448;SDS011;62878;51.026;4.472;2022-11-15T14:22:13;1.00;;;0.10;;
74448;SDS011;62878;51.026;4.472;2022-11-15T14:24:41;1.70;;;0.30;;
74448;SDS011;62878;51.026;4.472;2022-11-15T14:27:27;0.57;;;0.10;;
74448;SDS011;62878;51.026;4.472;2022-11-15T14:29:54;0.82;;;0.10;;
74448;SDS011;62878;51.026;4.472;2022-11-15T14:32:30;1.83;;;0.10;;
74448;SDS011;62878;51.026;4.472;2022-11-15T14:35:09;0.40;;;0.20;;
74448;SDS011;62878;51.026;4.472;2022-11-15T14:37:46;0.50;;;0.10;;
74448;SDS011;62878;51.026;4.472;2022-11-15T14:40:13;0.77;;;0.10;;
74448;SDS011;62878;51.026;4.472;2022-11-15T14:42:40;0.52;;;0.43;;
74448;SDS011;62878;51.026;4.472;2022-11-15T14:45:13;1.15;;;0.15;;
74448;SDS011;62878;51.026;4.472;2022-11-15T14:50:10;0.40;;;0.10;;
74448;SDS011;62878;51.026;4.472;2022-11-15T14:52:36;0.10;;;0.10;;
74448;SDS011;62878;51.026;4.472;2022-11-15T14:55:03;2.72;;;0.93;;
74448;SDS011;62878;51.026;4.472;2022-11-15T14:57:35;0.60;;;0.20;;
74448;SDS011;62878;51.026;4.472;2022-11-15T15:00:00;0.10;;;0.03;;
74448;SDS011;62878;51.026;4.472;2022-11-15T15:02:26;0.68;;;0.20;;
74448;SDS011;62878;51.026;4.472;2022-11-15T15:04:52;1.05;;;0.20;;
74448;SDS011;62878;51.026;4.472;2022-11-15T15:07:17;0.85;;;0.20;;
74448;SDS011;62878;51.026;4.472;2022-11-15T15:09:43;2.40;;;0.20;;
74448;SDS011;62878;51.026;4.472;2022-11-15T15:14:48;0.55;;;0.10;;
74448;SDS011;62878;51.026;4.472;2022-11-15T15:17:15;0.50;;;0.20;;
74448;SDS011;62878;51.026;4.472;2022-11-15T15:19:41;1.30;;;0.10;;
74448;SDS011;62878;51.026;4.472;2022-11-15T15:22:14;0.88;;;0.20;;
74448;SDS011;62878;51.026;4.472;2022-11-15T15:24:42;0.40;;;0.10;;
74448;SDS011;62878;51.026;4.472;2022-11-15T15:27:09;2.05;;;1.02;;
74448;SDS011;62878;51.026;4.472;2022-11-15T15:29:34;0.65;;;0.30;;
74448;SDS011;62878;51.026;4.472;2022-11-15T15:32:00;0.70;;;0.50;;
74448;SDS011;62878;51.026;4.472;2022-11-15T15:34:26;2.08;;;0.60;;
74448;SDS011;62878;51.026;4.472;2022-11-15T15:39:50;5.88;;;0.95;;
74448;SDS011;62878;51.026;4.472;2022-11-15T15:42:18;0.80;;;0.35;;
74448;SDS011;62878;51.026;4.472;2022-11-15T15:44:44;3.65;;;0.28;;
74448;SDS011;62878;51.026;4.472;2022-11-15T15:47:11;2.60;;;0.30;;
74448;SDS011;62878;51.026;4.472;2022-11-15T15:49:38;2.88;;;0.30;;
74448;SDS011;62878;51.026;4.472;2022-11-15T15:52:03;1.35;;;0.30;;
74448;SDS011;62878;51.026;4.472;2022-11-15T15:54:29;2.20;;;0.40;;
74448;SDS011;62878;51.026;4.472;2022-11-15T15:56:54;1.40;;;0.30;;
74448;SDS011;62878;51.026;4.472;2022-11-15T15:59:19;0.68;;;0.28;;
74448;SDS011;62878;51.026;4.472;2022-11-15T16:01:45;0.73;;;0.20;;
74448;SDS011;62878;51.026;4.472;2022-11-15T16:04:10;2.85;;;0.50;;
74448;SDS011;62878;51.026;4.472;2022-11-15T16:06:39;3.92;;;0.32;;
74448;SDS011;62878;51.026;4.472;2022-11-15T16:09:11;0.60;;;0.30;;
74448;SDS011;62878;51.026;4.472;2022-11-15T16:11:43;1.10;;;0.25;;
74448;SDS011;62878;51.026;4.472;2022-11-15T16:14:09;1.85;;;0.30;;
74448;SDS011;62878;51.026;4.472;2022-11-15T16:16:35;0.93;;;0.30;;
74448;SDS011;62878;51.026;4.472;2022-11-15T16:19:02;1.42;;;0.30;;
74448;SDS011;62878;51.026;4.472;2022-11-15T16:21:28;2.30;;;0.30;;
74448;SDS011;62878;51.026;4.472;2022-11-15T16:23:53;1.38;;;0.30;;
74448;SDS011;62878;51.026;4.472;2022-11-15T16:26:24;0.73;;;0.20;;
74448;SDS011;62878;51.026;4.472;2022-11-15T16:28:51;0.60;;;0.30;;
74448;SDS011;62878;51.026;4.472;2022-11-15T16:31:17;1.48;;;0.55;;
74448;SDS011;62878;51.026;4.472;2022-11-15T16:33:46;0.80;;;0.20;;
74448;SDS011;62878;51.026;4.472;2022-11-15T16:36:30;1.65;;;0.30;;
74448;SDS011;62878;51.026;4.472;2022-11-15T16:38:58;3.42;;;0.50;;
74448;SDS011;62878;51.026;4.472;2022-11-15T16:41:25;1.05;;;0.45;;
74448;SDS011;62878;51.026;4.472;2022-11-15T16:43:50;4.00;;;0.50;;
74448;SDS011;62878;51.026;4.472;2022-11-15T16:46:17;4.28;;;0.55;;
74448;SDS011;62878;51.026;4.472;2022-11-15T16:48:44;2.45;;;0.47;;
74448;SDS011;62878;51.026;4.472;2022-11-15T16:51:09;1.52;;;0.50;;
74448;SDS011;62878;51.026;4.472;2022-11-15T16:53:35;2.42;;;0.50;;
74448;SDS011;62878;51.026;4.472;2022-11-15T16:56:00;1.85;;;0.55;;
74448;SDS011;62878;51.026;4.472;2022-11-15T16:58:26;1.40;;;0.50;;
74448;SDS011;62878;51.026;4.472;2022-11-15T17:00:55;2.70;;;0.40;;
74448;SDS011;62878;51.026;4.472;2022-11-15T17:03:21;0.98;;;0.40;;
74448;SDS011;62878;51.026;4.472;2022-11-15T17:05:47;0.68;;;0.68;;
74448;SDS011;62878;51.026;4.472;2022-11-15T17:08:13;2.33;;;0.45;;
74448;SDS011;62878;51.026;4.472;2022-11-15T17:10:39;1.23;;;0.38;;
74448;SDS011;62878;51.026;4.472;2022-11-15T17:13:11;0.88;;;0.52;;
74448;SDS011;62878;51.026;4.472;2022-11-15T17:15:37;1.35;;;0.63;;